This is the latest recevied weather packets stored in our database for station/object OE-11073. If no packets are shown the sender has not sent any weather packets the latest 10 day(s).
| Time | Temp. | Humidity | Pressure | Rain* | Wind** | Luminosity | Snow |
|---|---|---|---|---|---|---|---|
| 1787787683 | 13.89° C | 95% | - | 0 mm | - | 0 W/m² | - |
| 1787787310 | 14.44° C | 93% | - | 0 mm | - | 0 W/m² | - |
| 1787786710 | 15° C | 92% | - | 0 mm | - | 0 W/m² | - |
| 1787786109 | 15.56° C | 89% | - | 0 mm | - | 0 W/m² | - |
| 1787785510 | 15.56° C | 89% | - | 0 mm | - | 0 W/m² | - |
| 1787784910 | 15.56° C | 90% | - | 0 mm | - | 0 W/m² | - |
| 1787784083 | 15.56° C | 88% | - | 0 mm | - | 0 W/m² | - |
| 1787783710 | 16.11° C | 89% | - | 0 mm | - | 0 W/m² | - |
| 1787783109 | 15.56° C | 89% | - | 0 mm | - | 0 W/m² | - |
| 1787782284 | 15.56° C | 90% | - | 0 mm | - | 0 W/m² | - |
| 1787781910 | 15.56° C | 89% | - | 0 mm | - | 0 W/m² | - |
| 1787781310 | 16.11° C | 88% | - | 0 mm | - | 0 W/m² | - |
| 1787780484 | 16.11° C | 88% | - | 0 mm | - | 0 W/m² | - |
| 1787780110 | 15.56° C | 93% | - | 0 mm | - | 0 W/m² | - |
| 1787779510 | 15.56° C | 93% | - | 0 mm | - | 0 W/m² | - |
| 1787778683 | 15.56° C | 92% | - | 0 mm | - | 0 W/m² | - |
| 1787778316 | 15.56° C | 91% | - | 0 mm | - | 0 W/m² | - |
| 1787777710 | 15.56° C | 90% | - | 0 mm | - | 0 W/m² | - |
| 1787776883 | 16.67° C | 87% | - | 0 mm | - | 0 W/m² | - |
| 1787776509 | 17.22° C | 84% | - | 0 mm | - | 0 W/m² | - |
| 1787775910 | 17.22° C | 84% | - | 0 mm | - | 0 W/m² | - |
| 1787775084 | 15.56° C | 87% | - | 0 mm | - | 0 W/m² | - |
| 1787774710 | 17.22° C | 85% | - | 0 mm | - | 0 W/m² | - |
| 1787774110 | 17.22° C | 85% | - | 0 mm | - | 0 W/m² | - |
| 1787773283 | 16.67° C | 86% | - | 0 mm | - | 0 W/m² | - |
* Rain latest hour (hover to see other rain measurements)
** Current wind speed in m/s (hover to see current wind gust speed)